sensor_id;sensor_type;location;lat;lon;timestamp;P1;durP1;ratioP1;P2;durP2;ratioP2
7074;SDS011;3578;51.568;6.932;2022-09-09T00:00:00;1.67;;;1.30;;
7074;SDS011;3578;51.568;6.932;2022-09-09T00:02:27;1.43;;;1.33;;
7074;SDS011;3578;51.568;6.932;2022-09-09T00:04:58;2.20;;;1.50;;
7074;SDS011;3578;51.568;6.932;2022-09-09T00:07:32;3.70;;;1.57;;
7074;SDS011;3578;51.568;6.932;2022-09-09T00:10:13;1.67;;;1.47;;
7074;SDS011;3578;51.568;6.932;2022-09-09T00:12:51;2.33;;;1.20;;
7074;SDS011;3578;51.568;6.932;2022-09-09T00:15:26;4.83;;;1.60;;
7074;SDS011;3578;51.568;6.932;2022-09-09T00:18:01;1.37;;;1.13;;
7074;SDS011;3578;51.568;6.932;2022-09-09T00:20:41;2.67;;;1.67;;
7074;SDS011;3578;51.568;6.932;2022-09-09T00:23:17;2.63;;;1.43;;
7074;SDS011;3578;51.568;6.932;2022-09-09T00:25:54;1.97;;;1.53;;
7074;SDS011;3578;51.568;6.932;2022-09-09T00:28:32;2.90;;;1.60;;
7074;SDS011;3578;51.568;6.932;2022-09-09T00:31:09;1.77;;;1.67;;
7074;SDS011;3578;51.568;6.932;2022-09-09T00:33:39;1.60;;;1.50;;
7074;SDS011;3578;51.568;6.932;2022-09-09T00:36:09;1.67;;;1.57;;
7074;SDS011;3578;51.568;6.932;2022-09-09T00:38:42;2.10;;;1.93;;
7074;SDS011;3578;51.568;6.932;2022-09-09T00:41:14;1.83;;;1.73;;
7074;SDS011;3578;51.568;6.932;2022-09-09T00:43:52;2.50;;;2.30;;
7074;SDS011;3578;51.568;6.932;2022-09-09T00:46:36;3.53;;;2.27;;
7074;SDS011;3578;51.568;6.932;2022-09-09T00:49:21;1.70;;;1.60;;
7074;SDS011;3578;51.568;6.932;2022-09-09T00:52:04;2.27;;;2.17;;
7074;SDS011;3578;51.568;6.932;2022-09-09T00:54:46;1.80;;;1.70;;
7074;SDS011;3578;51.568;6.932;2022-09-09T00:57:23;2.10;;;2.00;;
7074;SDS011;3578;51.568;6.932;2022-09-09T01:00:15;3.20;;;2.90;;
7074;SDS011;3578;51.568;6.932;2022-09-09T01:02:49;2.13;;;1.60;;
7074;SDS011;3578;51.568;6.932;2022-09-09T01:05:33;3.10;;;1.87;;
7074;SDS011;3578;51.568;6.932;2022-09-09T01:08:11;3.60;;;2.30;;
7074;SDS011;3578;51.568;6.932;2022-09-09T01:10:53;2.83;;;1.90;;
7074;SDS011;3578;51.568;6.932;2022-09-09T01:13:24;5.20;;;1.97;;
7074;SDS011;3578;51.568;6.932;2022-09-09T01:15:56;1.70;;;1.60;;
7074;SDS011;3578;51.568;6.932;2022-09-09T01:18:26;4.57;;;2.13;;
7074;SDS011;3578;51.568;6.932;2022-09-09T01:21:01;1.60;;;1.50;;
7074;SDS011;3578;51.568;6.932;2022-09-09T01:23:45;1.60;;;1.40;;
7074;SDS011;3578;51.568;6.932;2022-09-09T01:26:36;1.70;;;1.60;;
7074;SDS011;3578;51.568;6.932;2022-09-09T01:29:06;2.00;;;1.90;;
7074;SDS011;3578;51.568;6.932;2022-09-09T01:31:36;3.10;;;1.67;;
7074;SDS011;3578;51.568;6.932;2022-09-09T01:34:09;1.70;;;1.30;;
7074;SDS011;3578;51.568;6.932;2022-09-09T01:36:38;2.10;;;1.53;;
7074;SDS011;3578;51.568;6.932;2022-09-09T01:39:10;3.63;;;1.83;;
7074;SDS011;3578;51.568;6.932;2022-09-09T01:41:39;1.77;;;1.50;;
7074;SDS011;3578;51.568;6.932;2022-09-09T01:44:06;1.50;;;1.43;;
7074;SDS011;3578;51.568;6.932;2022-09-09T01:46:34;1.30;;;1.20;;
7074;SDS011;3578;51.568;6.932;2022-09-09T01:49:02;1.60;;;1.50;;
7074;SDS011;3578;51.568;6.932;2022-09-09T01:51:33;2.47;;;1.67;;
7074;SDS011;3578;51.568;6.932;2022-09-09T01:54:00;2.33;;;1.90;;
7074;SDS011;3578;51.568;6.932;2022-09-09T01:56:32;3.87;;;1.60;;
7074;SDS011;3578;51.568;6.932;2022-09-09T01:59:18;5.87;;;2.20;;
7074;SDS011;3578;51.568;6.932;2022-09-09T02:02:09;2.57;;;2.10;;
7074;SDS011;3578;51.568;6.932;2022-09-09T02:04:40;4.00;;;2.00;;
7074;SDS011;3578;51.568;6.932;2022-09-09T02:10:05;3.10;;;2.10;;
7074;SDS011;3578;51.568;6.932;2022-09-09T02:12:40;1.87;;;1.77;;
7074;SDS011;3578;51.568;6.932;2022-09-09T02:15:14;2.60;;;1.77;;
7074;SDS011;3578;51.568;6.932;2022-09-09T02:17:49;2.40;;;2.30;;
7074;SDS011;3578;51.568;6.932;2022-09-09T02:20:18;2.83;;;2.27;;
7074;SDS011;3578;51.568;6.932;2022-09-09T02:22:48;1.90;;;1.80;;
7074;SDS011;3578;51.568;6.932;2022-09-09T02:25:17;2.17;;;2.00;;
7074;SDS011;3578;51.568;6.932;2022-09-09T02:27:51;1.97;;;1.83;;
7074;SDS011;3578;51.568;6.932;2022-09-09T02:30:18;4.00;;;2.10;;
7074;SDS011;3578;51.568;6.932;2022-09-09T02:32:47;6.33;;;2.23;;
7074;SDS011;3578;51.568;6.932;2022-09-09T02:35:22;4.43;;;2.30;;
7074;SDS011;3578;51.568;6.932;2022-09-09T02:37:51;6.43;;;2.50;;
7074;SDS011;3578;51.568;6.932;2022-09-09T02:40:24;2.77;;;2.10;;
7074;SDS011;3578;51.568;6.932;2022-09-09T02:42:53;2.30;;;2.10;;
7074;SDS011;3578;51.568;6.932;2022-09-09T02:45:23;4.53;;;2.40;;
7074;SDS011;3578;51.568;6.932;2022-09-09T02:47:55;2.37;;;2.17;;
7074;SDS011;3578;51.568;6.932;2022-09-09T02:50:34;3.53;;;2.30;;
7074;SDS011;3578;51.568;6.932;2022-09-09T02:53:10;2.83;;;1.50;;
7074;SDS011;3578;51.568;6.932;2022-09-09T02:55:45;2.10;;;1.87;;
7074;SDS011;3578;51.568;6.932;2022-09-09T02:58:21;8.13;;;2.40;;
7074;SDS011;3578;51.568;6.932;2022-09-09T03:00:49;2.70;;;1.60;;
7074;SDS011;3578;51.568;6.932;2022-09-09T03:03:17;2.50;;;1.73;;
7074;SDS011;3578;51.568;6.932;2022-09-09T03:05:47;4.97;;;1.87;;
7074;SDS011;3578;51.568;6.932;2022-09-09T03:08:14;3.43;;;1.80;;
7074;SDS011;3578;51.568;6.932;2022-09-09T03:10:42;1.90;;;1.80;;
7074;SDS011;3578;51.568;6.932;2022-09-09T03:13:09;2.73;;;1.90;;
7074;SDS011;3578;51.568;6.932;2022-09-09T03:15:38;2.50;;;1.67;;
7074;SDS011;3578;51.568;6.932;2022-09-09T03:18:05;2.90;;;1.80;;
7074;SDS011;3578;51.568;6.932;2022-09-09T03:20:32;4.13;;;2.30;;
7074;SDS011;3578;51.568;6.932;2022-09-09T03:22:59;3.13;;;2.13;;
7074;SDS011;3578;51.568;6.932;2022-09-09T03:25:27;3.27;;;2.00;;
7074;SDS011;3578;51.568;6.932;2022-09-09T03:27:55;7.37;;;2.13;;
7074;SDS011;3578;51.568;6.932;2022-09-09T03:30:22;2.90;;;1.83;;
7074;SDS011;3578;51.568;6.932;2022-09-09T03:32:52;4.60;;;2.33;;
7074;SDS011;3578;51.568;6.932;2022-09-09T03:35:20;2.10;;;2.00;;
7074;SDS011;3578;51.568;6.932;2022-09-09T03:37:47;3.83;;;2.70;;
7074;SDS011;3578;51.568;6.932;2022-09-09T03:40:15;4.83;;;2.00;;
7074;SDS011;3578;51.568;6.932;2022-09-09T03:42:43;2.33;;;1.80;;
7074;SDS011;3578;51.568;6.932;2022-09-09T03:45:10;6.80;;;2.17;;
7074;SDS011;3578;51.568;6.932;2022-09-09T03:47:37;2.63;;;2.00;;
7074;SDS011;3578;51.568;6.932;2022-09-09T03:50:06;5.20;;;2.40;;
7074;SDS011;3578;51.568;6.932;2022-09-09T03:52:35;3.17;;;2.03;;
7074;SDS011;3578;51.568;6.932;2022-09-09T03:55:03;2.13;;;1.93;;
7074;SDS011;3578;51.568;6.932;2022-09-09T03:57:31;2.27;;;2.17;;
7074;SDS011;3578;51.568;6.932;2022-09-09T04:00:00;2.47;;;2.27;;
7074;SDS011;3578;51.568;6.932;2022-09-09T04:02:29;3.40;;;2.77;;
7074;SDS011;3578;51.568;6.932;2022-09-09T04:04:56;4.10;;;2.57;;
7074;SDS011;3578;51.568;6.932;2022-09-09T04:07:24;2.70;;;2.23;;
7074;SDS011;3578;51.568;6.932;2022-09-09T04:09:52;3.93;;;2.10;;
7074;SDS011;3578;51.568;6.932;2022-09-09T04:12:19;3.80;;;2.30;;
7074;SDS011;3578;51.568;6.932;2022-09-09T04:14:47;6.03;;;2.57;;
7074;SDS011;3578;51.568;6.932;2022-09-09T04:17:14;3.80;;;2.50;;
7074;SDS011;3578;51.568;6.932;2022-09-09T04:19:41;9.27;;;2.90;;
7074;SDS011;3578;51.568;6.932;2022-09-09T04:22:08;5.37;;;2.60;;
7074;SDS011;3578;51.568;6.932;2022-09-09T04:24:36;5.23;;;2.30;;
7074;SDS011;3578;51.568;6.932;2022-09-09T04:27:03;3.30;;;2.40;;
7074;SDS011;3578;51.568;6.932;2022-09-09T04:29:30;7.73;;;2.90;;
7074;SDS011;3578;51.568;6.932;2022-09-09T04:31:58;5.90;;;2.90;;
7074;SDS011;3578;51.568;6.932;2022-09-09T04:34:25;4.80;;;2.70;;
7074;SDS011;3578;51.568;6.932;2022-09-09T04:36:52;5.53;;;2.80;;
7074;SDS011;3578;51.568;6.932;2022-09-09T04:39:20;5.73;;;2.43;;
7074;SDS011;3578;51.568;6.932;2022-09-09T04:41:48;2.77;;;2.57;;
7074;SDS011;3578;51.568;6.932;2022-09-09T04:44:15;6.37;;;2.97;;
7074;SDS011;3578;51.568;6.932;2022-09-09T04:46:42;5.47;;;2.43;;
7074;SDS011;3578;51.568;6.932;2022-09-09T04:49:10;4.87;;;2.83;;
7074;SDS011;3578;51.568;6.932;2022-09-09T04:51:37;7.37;;;2.97;;
7074;SDS011;3578;51.568;6.932;2022-09-09T04:54:04;3.27;;;2.87;;
7074;SDS011;3578;51.568;6.932;2022-09-09T04:56:31;3.33;;;2.60;;
7074;SDS011;3578;51.568;6.932;2022-09-09T04:58:59;2.80;;;2.60;;
7074;SDS011;3578;51.568;6.932;2022-09-09T05:01:27;6.10;;;3.00;;
7074;SDS011;3578;51.568;6.932;2022-09-09T05:03:54;11.00;;;3.67;;
7074;SDS011;3578;51.568;6.932;2022-09-09T05:06:22;9.80;;;3.10;;
7074;SDS011;3578;51.568;6.932;2022-09-09T05:08:49;9.73;;;2.63;;
7074;SDS011;3578;51.568;6.932;2022-09-09T05:11:16;5.70;;;2.90;;
7074;SDS011;3578;51.568;6.932;2022-09-09T05:13:45;7.10;;;2.80;;
7074;SDS011;3578;51.568;6.932;2022-09-09T05:16:14;2.27;;;2.07;;
7074;SDS011;3578;51.568;6.932;2022-09-09T05:18:42;3.63;;;2.73;;
7074;SDS011;3578;51.568;6.932;2022-09-09T05:21:11;4.87;;;2.60;;
7074;SDS011;3578;51.568;6.932;2022-09-09T05:23:39;4.37;;;2.60;;
7074;SDS011;3578;51.568;6.932;2022-09-09T05:26:07;5.60;;;2.60;;
7074;SDS011;3578;51.568;6.932;2022-09-09T05:28:38;4.43;;;2.83;;
7074;SDS011;3578;51.568;6.932;2022-09-09T05:31:06;7.47;;;2.90;;
7074;SDS011;3578;51.568;6.932;2022-09-09T05:33:37;3.70;;;2.40;;
7074;SDS011;3578;51.568;6.932;2022-09-09T05:36:06;5.83;;;2.80;;
7074;SDS011;3578;51.568;6.932;2022-09-09T05:38:38;15.80;;;3.40;;
7074;SDS011;3578;51.568;6.932;2022-09-09T05:41:06;7.73;;;2.43;;
7074;SDS011;3578;51.568;6.932;2022-09-09T05:43:34;4.13;;;2.47;;
7074;SDS011;3578;51.568;6.932;2022-09-09T05:46:02;7.00;;;3.33;;
7074;SDS011;3578;51.568;6.932;2022-09-09T05:48:32;6.00;;;2.53;;
7074;SDS011;3578;51.568;6.932;2022-09-09T05:51:01;5.30;;;2.20;;
7074;SDS011;3578;51.568;6.932;2022-09-09T05:53:30;9.03;;;2.90;;
7074;SDS011;3578;51.568;6.932;2022-09-09T05:55:59;6.13;;;2.93;;
7074;SDS011;3578;51.568;6.932;2022-09-09T05:58:28;4.07;;;2.40;;
7074;SDS011;3578;51.568;6.932;2022-09-09T06:01:03;3.73;;;2.23;;
7074;SDS011;3578;51.568;6.932;2022-09-09T06:03:31;12.30;;;2.37;;
7074;SDS011;3578;51.568;6.932;2022-09-09T06:06:00;5.53;;;2.80;;
7074;SDS011;3578;51.568;6.932;2022-09-09T06:08:31;6.13;;;2.70;;
7074;SDS011;3578;51.568;6.932;2022-09-09T06:11:02;6.43;;;3.20;;
7074;SDS011;3578;51.568;6.932;2022-09-09T06:13:31;4.07;;;2.73;;
7074;SDS011;3578;51.568;6.932;2022-09-09T06:15:58;4.43;;;3.00;;
7074;SDS011;3578;51.568;6.932;2022-09-09T06:18:26;3.53;;;2.50;;
7074;SDS011;3578;51.568;6.932;2022-09-09T06:20:53;7.80;;;2.53;;
7074;SDS011;3578;51.568;6.932;2022-09-09T06:23:24;3.90;;;2.40;;
7074;SDS011;3578;51.568;6.932;2022-09-09T06:25:51;12.63;;;3.53;;
7074;SDS011;3578;51.568;6.932;2022-09-09T06:28:27;4.83;;;2.60;;
7074;SDS011;3578;51.568;6.932;2022-09-09T06:30:56;8.53;;;2.87;;
7074;SDS011;3578;51.568;6.932;2022-09-09T06:33:24;7.73;;;2.80;;
7074;SDS011;3578;51.568;6.932;2022-09-09T06:35:52;5.20;;;3.27;;
7074;SDS011;3578;51.568;6.932;2022-09-09T06:38:23;10.20;;;2.87;;
7074;SDS011;3578;51.568;6.932;2022-09-09T06:40:51;4.50;;;2.50;;
7074;SDS011;3578;51.568;6.932;2022-09-09T06:43:19;8.33;;;3.20;;
7074;SDS011;3578;51.568;6.932;2022-09-09T06:45:52;3.60;;;2.60;;
7074;SDS011;3578;51.568;6.932;2022-09-09T06:48:21;4.83;;;2.47;;
7074;SDS011;3578;51.568;6.932;2022-09-09T06:50:48;6.83;;;2.60;;
7074;SDS011;3578;51.568;6.932;2022-09-09T06:53:16;7.47;;;2.80;;
7074;SDS011;3578;51.568;6.932;2022-09-09T06:55:45;6.37;;;2.83;;
7074;SDS011;3578;51.568;6.932;2022-09-09T06:58:13;5.30;;;2.40;;
7074;SDS011;3578;51.568;6.932;2022-09-09T07:00:39;9.50;;;2.90;;
7074;SDS011;3578;51.568;6.932;2022-09-09T07:03:07;8.53;;;2.83;;
7074;SDS011;3578;51.568;6.932;2022-09-09T07:05:35;5.73;;;2.60;;
7074;SDS011;3578;51.568;6.932;2022-09-09T07:08:02;5.53;;;2.10;;
7074;SDS011;3578;51.568;6.932;2022-09-09T07:10:30;8.30;;;2.23;;
7074;SDS011;3578;51.568;6.932;2022-09-09T07:13:00;6.17;;;2.60;;
7074;SDS011;3578;51.568;6.932;2022-09-09T07:15:27;7.63;;;2.53;;
7074;SDS011;3578;51.568;6.932;2022-09-09T07:17:54;6.30;;;2.40;;
7074;SDS011;3578;51.568;6.932;2022-09-09T07:20:26;4.87;;;2.90;;
7074;SDS011;3578;51.568;6.932;2022-09-09T07:22:54;3.20;;;2.30;;
7074;SDS011;3578;51.568;6.932;2022-09-09T07:25:22;10.93;;;2.57;;
7074;SDS011;3578;51.568;6.932;2022-09-09T07:27:48;6.10;;;3.00;;
7074;SDS011;3578;51.568;6.932;2022-09-09T07:30:17;6.20;;;2.60;;
7074;SDS011;3578;51.568;6.932;2022-09-09T07:32:44;5.30;;;2.40;;
7074;SDS011;3578;51.568;6.932;2022-09-09T07:35:11;3.80;;;2.37;;
7074;SDS011;3578;51.568;6.932;2022-09-09T07:37:38;7.43;;;2.13;;
7074;SDS011;3578;51.568;6.932;2022-09-09T07:40:06;6.37;;;2.50;;
7074;SDS011;3578;51.568;6.932;2022-09-09T07:42:35;6.53;;;2.63;;
7074;SDS011;3578;51.568;6.932;2022-09-09T07:45:02;7.13;;;2.43;;
7074;SDS011;3578;51.568;6.932;2022-09-09T07:47:32;5.57;;;2.07;;
7074;SDS011;3578;51.568;6.932;2022-09-09T07:49:58;5.13;;;2.10;;
7074;SDS011;3578;51.568;6.932;2022-09-09T07:52:26;3.83;;;2.20;;
7074;SDS011;3578;51.568;6.932;2022-09-09T07:54:53;8.07;;;2.30;;
7074;SDS011;3578;51.568;6.932;2022-09-09T07:57:21;3.70;;;1.90;;
7074;SDS011;3578;51.568;6.932;2022-09-09T07:59:48;8.77;;;1.83;;
7074;SDS011;3578;51.568;6.932;2022-09-09T08:02:15;4.33;;;1.90;;
7074;SDS011;3578;51.568;6.932;2022-09-09T08:04:44;8.90;;;2.60;;
7074;SDS011;3578;51.568;6.932;2022-09-09T08:07:11;5.10;;;2.30;;
7074;SDS011;3578;51.568;6.932;2022-09-09T08:09:38;7.30;;;2.17;;
7074;SDS011;3578;51.568;6.932;2022-09-09T08:12:06;9.27;;;2.47;;
7074;SDS011;3578;51.568;6.932;2022-09-09T08:14:33;5.20;;;1.70;;
7074;SDS011;3578;51.568;6.932;2022-09-09T08:17:00;4.27;;;1.50;;
7074;SDS011;3578;51.568;6.932;2022-09-09T08:19:27;5.43;;;1.80;;
7074;SDS011;3578;51.568;6.932;2022-09-09T08:21:56;8.97;;;2.13;;
7074;SDS011;3578;51.568;6.932;2022-09-09T08:24:23;11.43;;;2.43;;
7074;SDS011;3578;51.568;6.932;2022-09-09T08:26:50;4.60;;;1.60;;
7074;SDS011;3578;51.568;6.932;2022-09-09T08:29:17;11.83;;;2.57;;
7074;SDS011;3578;51.568;6.932;2022-09-09T08:31:45;6.73;;;1.83;;
7074;SDS011;3578;51.568;6.932;2022-09-09T08:34:15;4.57;;;1.70;;
7074;SDS011;3578;51.568;6.932;2022-09-09T08:36:43;4.07;;;1.93;;
7074;SDS011;3578;51.568;6.932;2022-09-09T08:39:13;10.33;;;2.30;;
7074;SDS011;3578;51.568;6.932;2022-09-09T08:44:44;3.80;;;1.50;;
7074;SDS011;3578;51.568;6.932;2022-09-09T08:47:44;5.60;;;1.73;;
7074;SDS011;3578;51.568;6.932;2022-09-09T08:50:24;3.40;;;1.30;;
7074;SDS011;3578;51.568;6.932;2022-09-09T08:52:56;4.20;;;1.37;;
7074;SDS011;3578;51.568;6.932;2022-09-09T08:55:32;4.53;;;1.47;;
7074;SDS011;3578;51.568;6.932;2022-09-09T08:58:10;7.37;;;1.90;;
7074;SDS011;3578;51.568;6.932;2022-09-09T09:00:44;3.93;;;1.40;;
7074;SDS011;3578;51.568;6.932;2022-09-09T09:03:28;6.10;;;1.50;;
7074;SDS011;3578;51.568;6.932;2022-09-09T09:06:08;11.70;;;2.13;;
7074;SDS011;3578;51.568;6.932;2022-09-09T09:08:51;6.47;;;1.63;;
7074;SDS011;3578;51.568;6.932;2022-09-09T09:11:28;3.30;;;1.77;;
7074;SDS011;3578;51.568;6.932;2022-09-09T09:14:04;4.17;;;1.50;;
7074;SDS011;3578;51.568;6.932;2022-09-09T09:16:42;8.90;;;1.73;;
7074;SDS011;3578;51.568;6.932;2022-09-09T09:19:18;4.73;;;2.07;;
7074;SDS011;3578;51.568;6.932;2022-09-09T09:21:48;3.57;;;1.50;;
7074;SDS011;3578;51.568;6.932;2022-09-09T09:24:25;4.93;;;1.87;;
7074;SDS011;3578;51.568;6.932;2022-09-09T09:27:10;16.10;;;1.63;;
7074;SDS011;3578;51.568;6.932;2022-09-09T09:29:39;2.13;;;1.53;;
7074;SDS011;3578;51.568;6.932;2022-09-09T09:32:09;3.47;;;1.30;;
7074;SDS011;3578;51.568;6.932;2022-09-09T09:34:41;3.50;;;1.50;;
7074;SDS011;3578;51.568;6.932;2022-09-09T09:37:15;9.13;;;1.70;;
7074;SDS011;3578;51.568;6.932;2022-09-09T09:39:49;7.27;;;2.00;;
7074;SDS011;3578;51.568;6.932;2022-09-09T09:42:17;7.03;;;1.90;;
7074;SDS011;3578;51.568;6.932;2022-09-09T09:44:45;3.90;;;1.57;;
7074;SDS011;3578;51.568;6.932;2022-09-09T09:47:13;8.00;;;1.57;;
7074;SDS011;3578;51.568;6.932;2022-09-09T09:49:50;8.93;;;1.97;;
7074;SDS011;3578;51.568;6.932;2022-09-09T09:52:20;3.43;;;1.43;;
7074;SDS011;3578;51.568;6.932;2022-09-09T09:54:49;10.70;;;3.00;;
7074;SDS011;3578;51.568;6.932;2022-09-09T09:57:22;11.93;;;2.77;;
7074;SDS011;3578;51.568;6.932;2022-09-09T10:00:00;9.53;;;2.00;;
7074;SDS011;3578;51.568;6.932;2022-09-09T10:02:37;6.67;;;2.10;;
7074;SDS011;3578;51.568;6.932;2022-09-09T10:05:12;11.83;;;2.03;;
7074;SDS011;3578;51.568;6.932;2022-09-09T10:07:41;4.40;;;1.90;;
7074;SDS011;3578;51.568;6.932;2022-09-09T10:10:12;3.47;;;1.37;;
7074;SDS011;3578;51.568;6.932;2022-09-09T10:12:50;3.67;;;1.80;;
7074;SDS011;3578;51.568;6.932;2022-09-09T10:15:30;7.03;;;1.73;;
7074;SDS011;3578;51.568;6.932;2022-09-09T10:18:12;9.40;;;1.70;;
7074;SDS011;3578;51.568;6.932;2022-09-09T10:21:02;3.87;;;1.80;;
7074;SDS011;3578;51.568;6.932;2022-09-09T10:23:41;3.10;;;1.40;;
7074;SDS011;3578;51.568;6.932;2022-09-09T10:26:32;2.83;;;1.30;;
7074;SDS011;3578;51.568;6.932;2022-09-09T10:29:15;3.33;;;1.33;;
7074;SDS011;3578;51.568;6.932;2022-09-09T10:32:23;4.20;;;1.67;;
7074;SDS011;3578;51.568;6.932;2022-09-09T10:35:08;3.73;;;1.80;;
7074;SDS011;3578;51.568;6.932;2022-09-09T10:37:46;3.30;;;1.40;;
7074;SDS011;3578;51.568;6.932;2022-09-09T10:40:43;3.93;;;1.30;;
7074;SDS011;3578;51.568;6.932;2022-09-09T10:43:45;1.97;;;1.40;;
7074;SDS011;3578;51.568;6.932;2022-09-09T10:46:37;1.80;;;0.93;;
7074;SDS011;3578;51.568;6.932;2022-09-09T10:49:20;1.33;;;1.20;;
7074;SDS011;3578;51.568;6.932;2022-09-09T10:52:07;4.03;;;1.50;;
7074;SDS011;3578;51.568;6.932;2022-09-09T10:54:46;2.00;;;1.30;;
7074;SDS011;3578;51.568;6.932;2022-09-09T10:57:25;4.73;;;1.87;;
7074;SDS011;3578;51.568;6.932;2022-09-09T10:59:58;16.67;;;2.00;;
7074;SDS011;3578;51.568;6.932;2022-09-09T11:02:32;2.77;;;1.20;;
7074;SDS011;3578;51.568;6.932;2022-09-09T11:05:02;2.50;;;1.40;;
7074;SDS011;3578;51.568;6.932;2022-09-09T11:07:39;1.40;;;1.30;;
7074;SDS011;3578;51.568;6.932;2022-09-09T11:10:16;5.07;;;1.67;;
7074;SDS011;3578;51.568;6.932;2022-09-09T11:12:49;2.67;;;0.93;;
7074;SDS011;3578;51.568;6.932;2022-09-09T11:15:20;4.30;;;1.13;;
7074;SDS011;3578;51.568;6.932;2022-09-09T11:17:57;3.80;;;1.40;;
7074;SDS011;3578;51.568;6.932;2022-09-09T11:20:27;2.80;;;1.10;;
7074;SDS011;3578;51.568;6.932;2022-09-09T11:22:55;2.10;;;1.10;;
7074;SDS011;3578;51.568;6.932;2022-09-09T11:25:29;3.63;;;1.53;;
7074;SDS011;3578;51.568;6.932;2022-09-09T11:28:06;2.53;;;1.40;;
7074;SDS011;3578;51.568;6.932;2022-09-09T11:30:54;3.53;;;1.00;;
7074;SDS011;3578;51.568;6.932;2022-09-09T11:33:51;4.93;;;2.00;;
7074;SDS011;3578;51.568;6.932;2022-09-09T11:36:48;3.13;;;1.27;;
7074;SDS011;3578;51.568;6.932;2022-09-09T11:39:37;1.60;;;1.27;;
7074;SDS011;3578;51.568;6.932;2022-09-09T11:42:41;2.63;;;1.30;;
7074;SDS011;3578;51.568;6.932;2022-09-09T11:45:08;1.60;;;1.00;;
7074;SDS011;3578;51.568;6.932;2022-09-09T11:47:50;2.10;;;1.07;;
7074;SDS011;3578;51.568;6.932;2022-09-09T11:50:28;7.37;;;2.03;;
7074;SDS011;3578;51.568;6.932;2022-09-09T11:53:05;2.17;;;1.40;;
7074;SDS011;3578;51.568;6.932;2022-09-09T11:56:02;2.53;;;1.30;;
7074;SDS011;3578;51.568;6.932;2022-09-09T11:58:38;2.73;;;1.70;;
7074;SDS011;3578;51.568;6.932;2022-09-09T12:04:11;4.83;;;1.33;;
7074;SDS011;3578;51.568;6.932;2022-09-09T12:06:59;2.43;;;0.97;;
7074;SDS011;3578;51.568;6.932;2022-09-09T12:09:42;1.27;;;1.07;;
7074;SDS011;3578;51.568;6.932;2022-09-09T12:12:24;1.70;;;1.30;;
7074;SDS011;3578;51.568;6.932;2022-09-09T12:14:56;1.60;;;1.33;;
7074;SDS011;3578;51.568;6.932;2022-09-09T12:17:45;2.40;;;1.30;;
7074;SDS011;3578;51.568;6.932;2022-09-09T12:20:16;3.33;;;1.10;;
7074;SDS011;3578;51.568;6.932;2022-09-09T12:25:49;8.53;;;1.83;;
7074;SDS011;3578;51.568;6.932;2022-09-09T12:28:26;2.40;;;1.17;;
7074;SDS011;3578;51.568;6.932;2022-09-09T12:31:12;1.43;;;1.10;;
7074;SDS011;3578;51.568;6.932;2022-09-09T12:33:47;3.57;;;1.00;;
7074;SDS011;3578;51.568;6.932;2022-09-09T12:36:15;1.83;;;0.87;;
7074;SDS011;3578;51.568;6.932;2022-09-09T12:38:46;1.13;;;0.80;;
7074;SDS011;3578;51.568;6.932;2022-09-09T12:41:17;2.17;;;1.03;;
7074;SDS011;3578;51.568;6.932;2022-09-09T12:43:47;2.07;;;1.17;;
7074;SDS011;3578;51.568;6.932;2022-09-09T12:46:17;2.33;;;1.03;;
7074;SDS011;3578;51.568;6.932;2022-09-09T12:48:55;1.73;;;1.47;;
7074;SDS011;3578;51.568;6.932;2022-09-09T12:51:24;3.53;;;1.20;;
7074;SDS011;3578;51.568;6.932;2022-09-09T12:53:55;4.40;;;1.53;;
7074;SDS011;3578;51.568;6.932;2022-09-09T12:56:24;10.03;;;1.73;;
7074;SDS011;3578;51.568;6.932;2022-09-09T12:58:54;2.20;;;1.30;;
7074;SDS011;3578;51.568;6.932;2022-09-09T13:01:24;2.83;;;1.30;;
7074;SDS011;3578;51.568;6.932;2022-09-09T13:03:53;3.90;;;1.33;;
7074;SDS011;3578;51.568;6.932;2022-09-09T13:06:21;1.93;;;1.30;;
7074;SDS011;3578;51.568;6.932;2022-09-09T13:08:50;2.50;;;1.40;;
7074;SDS011;3578;51.568;6.932;2022-09-09T13:11:20;1.80;;;1.17;;
7074;SDS011;3578;51.568;6.932;2022-09-09T13:13:53;1.63;;;0.97;;
7074;SDS011;3578;51.568;6.932;2022-09-09T13:16:23;1.30;;;1.20;;
7074;SDS011;3578;51.568;6.932;2022-09-09T13:18:56;5.27;;;1.40;;
7074;SDS011;3578;51.568;6.932;2022-09-09T13:21:33;3.33;;;1.33;;
7074;SDS011;3578;51.568;6.932;2022-09-09T13:24:02;3.60;;;1.13;;
7074;SDS011;3578;51.568;6.932;2022-09-09T13:26:34;2.53;;;1.20;;
7074;SDS011;3578;51.568;6.932;2022-09-09T13:31:51;2.90;;;1.43;;
7074;SDS011;3578;51.568;6.932;2022-09-09T13:34:26;3.27;;;1.30;;
7074;SDS011;3578;51.568;6.932;2022-09-09T13:36:57;1.47;;;1.27;;
7074;SDS011;3578;51.568;6.932;2022-09-09T13:39:28;2.70;;;1.50;;
7074;SDS011;3578;51.568;6.932;2022-09-09T13:41:57;3.20;;;1.30;;
7074;SDS011;3578;51.568;6.932;2022-09-09T13:44:25;4.83;;;1.70;;
7074;SDS011;3578;51.568;6.932;2022-09-09T13:47:02;4.97;;;1.90;;
7074;SDS011;3578;51.568;6.932;2022-09-09T13:49:31;5.17;;;1.90;;
7074;SDS011;3578;51.568;6.932;2022-09-09T13:52:06;5.63;;;2.43;;
7074;SDS011;3578;51.568;6.932;2022-09-09T13:54:38;2.43;;;1.63;;
7074;SDS011;3578;51.568;6.932;2022-09-09T13:57:12;1.77;;;1.30;;
7074;SDS011;3578;51.568;6.932;2022-09-09T13:59:43;2.40;;;2.20;;
7074;SDS011;3578;51.568;6.932;2022-09-09T14:02:11;7.73;;;2.33;;
7074;SDS011;3578;51.568;6.932;2022-09-09T14:04:38;3.63;;;1.60;;
7074;SDS011;3578;51.568;6.932;2022-09-09T14:07:08;2.93;;;1.70;;
7074;SDS011;3578;51.568;6.932;2022-09-09T14:09:37;2.63;;;1.77;;
7074;SDS011;3578;51.568;6.932;2022-09-09T14:12:08;4.73;;;1.93;;
7074;SDS011;3578;51.568;6.932;2022-09-09T14:14:36;4.73;;;2.17;;
7074;SDS011;3578;51.568;6.932;2022-09-09T14:17:03;3.03;;;1.97;;
7074;SDS011;3578;51.568;6.932;2022-09-09T14:19:31;3.60;;;2.00;;
7074;SDS011;3578;51.568;6.932;2022-09-09T14:21:58;3.27;;;2.13;;
7074;SDS011;3578;51.568;6.932;2022-09-09T14:24:26;5.10;;;2.60;;
7074;SDS011;3578;51.568;6.932;2022-09-09T14:26:53;4.27;;;2.20;;
7074;SDS011;3578;51.568;6.932;2022-09-09T14:29:21;6.23;;;2.90;;
7074;SDS011;3578;51.568;6.932;2022-09-09T14:31:50;5.37;;;2.60;;
7074;SDS011;3578;51.568;6.932;2022-09-09T14:34:17;5.07;;;2.43;;
7074;SDS011;3578;51.568;6.932;2022-09-09T14:36:44;2.80;;;2.30;;
7074;SDS011;3578;51.568;6.932;2022-09-09T14:39:12;5.30;;;1.97;;
7074;SDS011;3578;51.568;6.932;2022-09-09T14:41:39;4.10;;;1.87;;
7074;SDS011;3578;51.568;6.932;2022-09-09T14:44:06;4.87;;;2.30;;
7074;SDS011;3578;51.568;6.932;2022-09-09T14:46:34;5.70;;;1.80;;
7074;SDS011;3578;51.568;6.932;2022-09-09T14:49:01;2.97;;;1.77;;
7074;SDS011;3578;51.568;6.932;2022-09-09T14:51:29;5.60;;;2.03;;
7074;SDS011;3578;51.568;6.932;2022-09-09T14:53:57;5.50;;;2.03;;
7074;SDS011;3578;51.568;6.932;2022-09-09T14:56:28;7.07;;;2.60;;
7074;SDS011;3578;51.568;6.932;2022-09-09T14:58:57;6.90;;;2.97;;
7074;SDS011;3578;51.568;6.932;2022-09-09T15:01:26;10.43;;;2.80;;
7074;SDS011;3578;51.568;6.932;2022-09-09T15:03:56;7.80;;;2.63;;
7074;SDS011;3578;51.568;6.932;2022-09-09T15:06:24;7.47;;;3.10;;
7074;SDS011;3578;51.568;6.932;2022-09-09T15:08:54;4.50;;;2.27;;
7074;SDS011;3578;51.568;6.932;2022-09-09T15:11:23;9.47;;;2.10;;
7074;SDS011;3578;51.568;6.932;2022-09-09T15:13:52;2.20;;;2.00;;
7074;SDS011;3578;51.568;6.932;2022-09-09T15:16:21;3.40;;;1.90;;
7074;SDS011;3578;51.568;6.932;2022-09-09T15:18:53;2.57;;;2.07;;
7074;SDS011;3578;51.568;6.932;2022-09-09T15:21:23;8.80;;;1.93;;
7074;SDS011;3578;51.568;6.932;2022-09-09T15:23:53;3.37;;;2.00;;
7074;SDS011;3578;51.568;6.932;2022-09-09T15:26:20;2.67;;;1.83;;
7074;SDS011;3578;51.568;6.932;2022-09-09T15:28:48;3.77;;;2.07;;
7074;SDS011;3578;51.568;6.932;2022-09-09T15:31:16;7.70;;;2.00;;
7074;SDS011;3578;51.568;6.932;2022-09-09T15:33:48;1.70;;;1.40;;
7074;SDS011;3578;51.568;6.932;2022-09-09T15:36:18;3.87;;;1.90;;
7074;SDS011;3578;51.568;6.932;2022-09-09T15:38:47;2.20;;;1.30;;
7074;SDS011;3578;51.568;6.932;2022-09-09T15:41:16;3.40;;;1.53;;
7074;SDS011;3578;51.568;6.932;2022-09-09T15:43:45;3.37;;;1.60;;
7074;SDS011;3578;51.568;6.932;2022-09-09T15:49:03;2.37;;;1.30;;
7074;SDS011;3578;51.568;6.932;2022-09-09T15:51:33;1.40;;;1.30;;
7074;SDS011;3578;51.568;6.932;2022-09-09T15:54:00;3.23;;;2.00;;
7074;SDS011;3578;51.568;6.932;2022-09-09T15:56:27;2.00;;;1.80;;
7074;SDS011;3578;51.568;6.932;2022-09-09T15:58:56;3.33;;;1.90;;
7074;SDS011;3578;51.568;6.932;2022-09-09T16:01:24;2.23;;;1.37;;